Time;durP1;ratioP1;P1;durP2;ratioP2;P2;SDS_P1;SDS_P2;PMS_P1;PMS_P2;Temp;Humidity;BMP_temperature;BMP_pressure;BME280_temperature;BME280_humidity;BME280_pressure;Samples;Min_cycle;Max_cycle;Signal;HPM_P1;HPM_P2
2021/03/09 00:01:25;;;;;;;36.50;20.35;;;;;;;4.46;70.18;100821.59;5058021;28;20804;-84
2021/03/09 00:03:55;;;;;;;37.13;21.20;;;;;;;4.50;70.29;100822.41;5037209;28;20054;-83
2021/03/09 00:06:23;;;;;;;35.45;20.20;;;;;;;4.49;69.85;100821.53;5027815;28;20053;-84
2021/03/09 00:08:49;;;;;;;35.00;20.75;;;;;;;4.44;69.58;100815.50;5051186;28;20076;-84
2021/03/09 00:11:24;;;;;;;37.00;21.27;;;;;;;4.46;69.14;100816.34;5032788;28;20048;-85
2021/03/09 00:13:53;;;;;;;41.58;22.10;;;;;;;4.41;69.65;100805.03;5026107;28;20057;-84
2021/03/09 00:16:20;;;;;;;37.72;20.67;;;;;;;4.43;70.39;100805.91;5036887;28;20105;-87
2021/03/09 00:18:48;;;;;;;37.70;20.90;;;;;;;4.41;70.24;100807.66;5027656;28;20053;-87
2021/03/09 00:21:15;;;;;;;37.85;20.20;;;;;;;4.46;70.46;100810.22;5051174;28;20510;-86
2021/03/09 00:23:44;;;;;;;37.20;20.25;;;;;;;4.47;70.04;100815.44;5056102;28;20045;-86
2021/03/09 00:26:11;;;;;;;32.17;20.00;;;;;;;4.49;70.32;100813.69;5057425;28;20057;-86
2021/03/09 00:28:40;;;;;;;38.65;21.13;;;;;;;4.50;70.41;100812.78;5050594;28;20053;-87
2021/03/09 00:31:07;;;;;;;36.83;20.25;;;;;;;4.53;70.60;100809.25;5048825;28;20083;-86
2021/03/09 00:33:35;;;;;;;38.00;21.13;;;;;;;4.56;69.92;100812.69;5031612;28;20532;-87
2021/03/09 00:36:04;;;;;;;36.80;20.65;;;;;;;4.58;70.03;100807.41;5049217;28;20049;-85
2021/03/09 00:38:30;;;;;;;33.97;20.20;;;;;;;4.53;69.81;100799.63;5055342;28;20056;-85
2021/03/09 00:40:56;;;;;;;34.78;19.90;;;;;;;4.55;69.98;100799.63;5036629;28;20053;-86
2021/03/09 00:43:23;;;;;;;39.92;21.30;;;;;;;4.53;69.88;100799.63;5047781;28;20041;-83
2021/03/09 00:45:51;;;;;;;35.20;20.90;;;;;;;4.52;70.46;100799.66;5054620;28;20045;-83
2021/03/09 00:48:18;;;;;;;37.08;20.80;;;;;;;4.47;70.41;100797.09;5049550;28;20061;-87
2021/03/09 00:50:46;;;;;;;35.92;20.42;;;;;;;4.47;70.94;100804.09;5041828;28;20053;-84
2021/03/09 00:53:13;;;;;;;35.38;20.30;;;;;;;4.44;70.85;100796.28;5040655;28;20129;-86
2021/03/09 00:55:41;;;;;;;40.13;21.30;;;;;;;4.47;70.80;100798.84;5055221;28;20059;-86
2021/03/09 00:58:07;;;;;;;39.22;21.08;;;;;;;4.49;70.62;100795.31;5051062;28;20054;-87
2021/03/09 01:00:34;;;;;;;36.05;20.10;;;;;;;4.49;70.83;100797.94;5036387;28;20058;-87
2021/03/09 01:03:01;;;;;;;39.22;21.67;;;;;;;4.48;70.97;100796.22;5046866;28;20081;-88
2021/03/09 01:05:27;;;;;;;37.53;21.35;;;;;;;4.50;70.63;100793.56;5029141;28;20061;-87
2021/03/09 01:07:57;;;;;;;35.35;20.42;;;;;;;4.50;70.59;100785.69;5046648;28;20046;-88
2021/03/09 01:10:23;;;;;;;37.22;21.45;;;;;;;4.45;70.88;100787.50;5029967;28;20056;-88
2021/03/09 01:12:50;;;;;;;35.72;20.67;;;;;;;4.48;71.12;100785.72;5035345;28;20056;-86
2021/03/09 01:15:30;;;;;;;35.78;21.42;;;;;;;4.49;71.04;100784.84;5051610;28;20049;-86
2021/03/09 01:18:13;;;;;;;35.63;20.90;;;;;;;4.52;71.16;100789.16;5032324;28;20064;-86
2021/03/09 01:20:40;;;;;;;34.75;19.98;;;;;;;4.51;71.20;100779.56;5027363;28;20065;-87
2021/03/09 01:23:07;;;;;;;34.88;21.20;;;;;;;4.44;71.21;100768.28;5041229;28;20077;-88
2021/03/09 01:25:34;;;;;;;35.17;19.52;;;;;;;4.46;71.03;100771.75;5040805;28;20049;-88
2021/03/09 01:28:01;;;;;;;32.90;18.52;;;;;;;4.48;70.87;100770.00;5039963;28;20069;-85
2021/03/09 01:30:28;;;;;;;37.65;19.52;;;;;;;4.51;70.80;100767.31;5039052;28;20532;-85
2021/03/09 01:32:54;;;;;;;35.53;19.40;;;;;;;4.55;70.15;100766.38;5024140;28;20069;-86
2021/03/09 01:35:21;;;;;;;32.58;16.95;;;;;;;4.50;69.10;100767.34;5050052;28;20056;-87
2021/03/09 01:37:47;;;;;;;28.65;16.20;;;;;;;4.49;68.51;100766.47;5051229;28;20057;-86
2021/03/09 01:40:14;;;;;;;29.05;15.82;;;;;;;4.46;68.43;100763.91;5031193;28;20038;-87
2021/03/09 01:42:41;;;;;;;27.38;15.63;;;;;;;4.44;68.23;100751.69;5038343;28;20077;-88
2021/03/09 01:45:09;;;;;;;22.67;14.93;;;;;;;4.43;67.81;100760.44;5038705;28;20056;-87
2021/03/09 01:47:45;;;;;;;26.80;15.55;;;;;;;4.42;67.67;100758.72;5052663;28;20041;-88
2021/03/09 01:50:14;;;;;;;24.20;14.48;;;;;;;4.43;68.15;100750.81;5055424;28;20035;-89
2021/03/09 01:52:42;;;;;;;27.42;14.68;;;;;;;4.47;67.56;100754.28;5052087;28;20077;-87
2021/03/09 01:55:13;;;;;;;26.50;15.63;;;;;;;4.47;67.26;100760.38;5048779;28;20079;-87
2021/03/09 01:57:43;;;;;;;26.63;15.45;;;;;;;4.45;67.40;100749.06;5039998;28;22118;-87
2021/03/09 02:00:11;;;;;;;26.52;14.85;;;;;;;4.43;67.33;100748.22;5033827;28;20049;-89
2021/03/09 02:02:38;;;;;;;28.63;15.75;;;;;;;4.43;68.13;100748.22;5049828;28;20117;-87
2021/03/09 02:05:07;;;;;;;28.17;16.58;;;;;;;4.46;68.38;100742.91;5051397;28;20084;-85
2021/03/09 02:07:33;;;;;;;32.45;18.30;;;;;;;4.46;69.22;100737.69;5051229;28;20113;-86
2021/03/09 02:10:01;;;;;;;32.17;19.13;;;;;;;4.44;69.80;100742.06;5049482;28;20049;-84
2021/03/09 02:13:08;;;;;;;31.65;19.48;;;;;;;4.38;71.00;100736.09;5032882;28;20053;-86
2021/03/09 02:15:45;;;;;;;35.88;19.70;;;;;;;4.31;72.03;100732.69;5046976;28;20042;-85
2021/03/09 02:18:32;;;;;;;32.03;19.58;;;;;;;4.25;71.74;100737.19;5046969;28;20042;-86
2021/03/09 02:21:18;;;;;;;31.75;19.35;;;;;;;4.21;72.72;100728.50;5049850;28;20053;-86
2021/03/09 02:24:50;;;;;;;35.47;19.27;;;;;;;4.25;72.65;100730.16;5045990;28;20053;-84
2021/03/09 02:27:45;;;;;;;33.72;19.70;;;;;;;4.24;72.99;100717.97;4961929;28;20062;-86
2021/03/09 02:30:22;;;;;;;34.03;19.52;;;;;;;4.20;72.57;100721.50;4939255;29;20055;-86
2021/03/09 02:33:13;;;;;;;33.20;19.30;;;;;;;4.09;72.85;100719.03;5036524;28;20152;-86
2021/03/09 02:35:53;;;;;;;32.90;18.15;;;;;;;4.00;73.83;100708.72;5044225;28;20045;-84
2021/03/09 02:38:23;;;;;;;33.05;18.85;;;;;;;4.05;73.06;100708.66;5022893;28;20045;-84
2021/03/09 02:40:54;;;;;;;31.48;18.98;;;;;;;4.05;73.26;100709.50;5023304;28;20049;-87
2021/03/09 02:43:26;;;;;;;31.70;18.20;;;;;;;4.06;73.05;100713.00;5028969;28;20069;-87
2021/03/09 02:45:54;;;;;;;30.00;16.90;;;;;;;4.08;73.12;100708.59;5044912;28;20091;-87
2021/03/09 02:48:23;;;;;;;28.23;16.63;;;;;;;4.10;72.38;100707.66;5041069;28;20081;-87
2021/03/09 02:50:55;;;;;;;26.98;15.77;;;;;;;4.14;72.12;100709.34;5036171;28;20057;-87
2021/03/09 02:53:28;;;;;;;25.13;15.15;;;;;;;4.16;70.78;100702.34;5026098;28;20057;-85
2021/03/09 02:56:00;;;;;;;27.25;15.85;;;;;;;4.12;70.80;100703.28;5047319;28;20177;-85
2021/03/09 02:58:28;;;;;;;25.67;14.82;;;;;;;4.12;70.73;100694.53;5043987;28;20071;-85
2021/03/09 03:00:56;;;;;;;26.83;15.05;;;;;;;4.14;70.06;100698.88;5025297;28;20049;-87
2021/03/09 03:03:27;;;;;;;23.80;14.52;;;;;;;4.15;69.61;100694.50;5035251;28;20093;-85
2021/03/09 03:05:59;;;;;;;23.95;14.15;;;;;;;4.17;69.92;100693.59;5018063;28;20081;-87
2021/03/09 03:08:30;;;;;;;23.42;13.75;;;;;;;4.14;69.53;100688.38;5036053;28;20109;-88
2021/03/09 03:10:57;;;;;;;27.13;14.90;;;;;;;4.13;69.41;100694.50;5043292;28;20049;-85
2021/03/09 03:13:26;;;;;;;24.25;14.45;;;;;;;4.05;68.81;100669.34;5019718;28;20466;-87
2021/03/09 03:15:55;;;;;;;26.48;15.32;;;;;;;4.11;68.35;100674.47;5036401;28;20052;-87
2021/03/09 03:18:24;;;;;;;25.92;13.93;;;;;;;4.11;68.75;100679.69;5034638;28;20060;-86
2021/03/09 03:20:51;;;;;;;25.17;14.55;;;;;;;4.07;68.91;100678.03;5037105;28;20061;-86
2021/03/09 03:23:21;;;;;;;27.83;15.05;;;;;;;4.06;69.83;100685.03;5034645;28;20115;-86
2021/03/09 03:25:53;;;;;;;24.70;14.73;;;;;;;4.04;69.13;100675.47;5034254;28;20053;-87
2021/03/09 03:28:21;;;;;;;27.33;15.85;;;;;;;4.05;69.34;100674.56;5037277;28;20111;-87
2021/03/09 03:30:49;;;;;;;28.38;16.33;;;;;;;4.00;69.46;100672.03;5022440;28;20079;-84
2021/03/09 03:33:18;;;;;;;29.15;16.48;;;;;;;3.97;69.94;100671.19;5027458;28;20119;-86
2021/03/09 03:35:48;;;;;;;29.30;17.23;;;;;;;3.97;70.09;100676.44;5046897;28;20088;-87
2021/03/09 03:38:15;;;;;;;29.05;16.75;;;;;;;3.98;70.42;100678.16;5051643;28;20041;-86
2021/03/09 03:40:42;;;;;;;31.50;17.52;;;;;;;3.93;70.64;100680.03;5040884;28;20050;-87
2021/03/09 03:43:13;;;;;;;33.45;17.90;;;;;;;3.91;70.65;100681.78;5051744;28;20053;-85
2021/03/09 03:45:40;;;;;;;31.60;18.30;;;;;;;3.86;71.00;100679.22;5047818;28;20106;-86
2021/03/09 03:48:07;;;;;;;33.08;17.63;;;;;;;3.79;71.08;100670.59;5028652;28;20057;-85
2021/03/09 03:50:39;;;;;;;32.25;18.05;;;;;;;3.76;71.44;100678.50;5046215;28;20045;-85
2021/03/09 03:53:27;;;;;;;30.42;17.10;;;;;;;3.73;72.04;100675.94;5044640;28;20042;-86
2021/03/09 03:56:43;;;;;;;30.52;17.90;;;;;;;3.71;71.48;100680.31;5047221;28;20053;-87
2021/03/09 03:59:35;;;;;;;32.67;19.70;;;;;;;3.67;71.87;100677.75;4976167;28;20061;-86
2021/03/09 04:02:11;;;;;;;29.17;17.95;;;;;;;3.65;71.67;100679.53;5021491;28;20050;-84
2021/03/09 04:04:46;;;;;;;31.27;18.58;;;;;;;3.62;71.87;100675.19;5037724;28;20069;-85
2021/03/09 04:07:18;;;;;;;30.98;18.15;;;;;;;3.55;71.95;100673.56;5038862;28;20049;-86
2021/03/09 04:09:45;;;;;;;;;;;;;;;3.55;72.44;100681.44;5041761;28;20057;-83
2021/03/09 04:12:17;;;;;;;36.10;18.90;;;;;;;3.47;72.92;100668.44;5038887;28;19925;-88
2021/03/09 04:14:44;;;;;;;37.75;18.52;;;;;;;3.45;72.52;100677.22;5037718;28;20059;-86
2021/03/09 04:17:13;;;;;;;31.85;18.77;;;;;;;3.39;73.14;100674.66;5038221;28;20056;-85
2021/03/09 04:19:44;;;;;;;;;;;;;;;3.36;73.13;100683.41;5023726;28;20070;-85
2021/03/09 04:22:16;;;;;;;34.03;18.00;;;;;;;3.30;73.28;100678.28;5024292;28;19925;-85
2021/03/09 04:24:47;;;;;;;35.78;20.02;;;;;;;3.26;73.13;100676.59;5021855;28;20050;-86
2021/03/09 04:27:23;;;;;;;33.83;19.23;;;;;;;3.20;73.59;100675.78;5039047;28;20050;-86
2021/03/09 04:29:58;;;;;;;30.83;18.00;;;;;;;3.12;73.54;100684.63;5023257;28;20061;-87
2021/03/09 04:32:28;;;;;;;32.05;18.30;;;;;;;3.08;74.05;100682.03;5038952;28;20145;-89
2021/03/09 04:34:57;;;;;;;32.78;18.65;;;;;;;3.05;74.18;100672.47;5027785;28;20060;-89
2021/03/09 04:37:40;;;;;;;31.42;18.33;;;;;;;3.03;74.59;100687.31;5030724;28;20053;-85
2021/03/09 04:40:10;;;;;;;31.73;18.23;;;;;;;3.03;74.30;100683.84;5045107;28;20048;-86
2021/03/09 04:42:37;;;;;;;30.88;18.75;;;;;;;2.97;73.90;100679.56;5052933;28;20045;-86
2021/03/09 04:45:14;;;;;;;34.33;19.05;;;;;;;2.92;74.49;100672.63;5050009;28;20034;-86
2021/03/09 04:47:42;;;;;;;32.15;18.48;;;;;;;2.92;74.76;100681.34;5034489;28;20132;-87
2021/03/09 04:50:12;;;;;;;31.58;18.30;;;;;;;2.92;74.89;100681.34;5056195;28;20038;-85
2021/03/09 04:52:39;;;;;;;32.33;17.73;;;;;;;2.88;74.70;100673.53;5058269;28;20050;-85
2021/03/09 04:55:07;;;;;;;35.67;19.40;;;;;;;2.86;75.45;100673.56;5051019;28;20057;-85
2021/03/09 04:57:43;;;;;;;32.67;18.67;;;;;;;2.84;75.31;100667.47;5034729;28;20109;-86
2021/03/09 05:00:21;;;;;;;30.85;17.98;;;;;;;2.82;75.44;100669.28;5037834;28;20037;-87
2021/03/09 05:02:51;;;;;;;33.67;19.00;;;;;;;2.83;75.23;100665.78;5057231;28;20042;-86
2021/03/09 05:05:23;;;;;;;31.98;18.65;;;;;;;2.79;75.86;100669.28;5056093;28;20061;-83
2021/03/09 05:07:52;;;;;;;33.95;19.30;;;;;;;2.75;75.16;100667.59;5058789;28;20077;-84
2021/03/09 05:10:19;;;;;;;32.92;19.27;;;;;;;2.71;75.60;100674.59;5057721;28;20060;-84
2021/03/09 05:12:54;;;;;;;34.72;19.92;;;;;;;2.65;75.26;100679.03;4967770;28;20126;-84
2021/03/09 05:15:24;;;;;;;36.03;19.75;;;;;;;2.65;75.57;100673.81;4965932;28;20085;-87
2021/03/09 05:17:50;;;;;;;32.47;18.58;;;;;;;2.59;75.79;100669.50;4972844;28;20045;-85
2021/03/09 05:20:18;;;;;;;35.92;19.40;;;;;;;2.56;75.62;100669.53;4976656;28;20074;-84
2021/03/09 05:22:46;;;;;;;32.42;17.88;;;;;;;2.58;76.20;100673.00;4985949;28;20130;-87
2021/03/09 05:25:15;;;;;;;32.35;18.35;;;;;;;2.59;76.33;100676.47;4989548;28;20051;-86
2021/03/09 05:27:44;;;;;;;33.22;18.65;;;;;;;2.59;76.21;100676.47;4976030;28;20090;-86
2021/03/09 05:30:14;;;;;;;32.97;18.45;;;;;;;2.60;76.43;100672.97;4997649;28;20125;-86
2021/03/09 05:32:42;;;;;;;42.17;19.10;;;;;;;2.64;76.70;100672.06;5046908;28;20443;-86
2021/03/09 05:35:13;;;;;;;32.53;18.17;;;;;;;2.64;76.28;100674.69;5044710;28;20669;-84
2021/03/09 05:37:40;;;;;;;36.03;20.20;;;;;;;2.65;76.62;100674.69;5043224;28;20045;-86
2021/03/09 05:40:07;;;;;;;34.55;19.40;;;;;;;2.70;76.32;100682.44;5039163;28;20037;-85
2021/03/09 05:42:49;;;;;;;31.15;18.27;;;;;;;2.75;76.62;100678.91;5045108;28;20121;-86
2021/03/09 05:45:17;;;;;;;34.67;18.65;;;;;;;2.74;75.70;100671.94;5023585;28;20045;-86
2021/03/09 05:47:45;;;;;;;33.22;18.17;;;;;;;2.74;75.95;100676.31;5046975;28;20041;-87
2021/03/09 05:50:12;;;;;;;34.55;19.02;;;;;;;2.75;76.33;100670.22;5030998;28;20058;-85
2021/03/09 05:52:42;;;;;;;30.17;18.15;;;;;;;2.71;75.43;100663.28;5031605;28;20108;-87
2021/03/09 05:55:12;;;;;;;31.52;18.30;;;;;;;2.78;75.86;100678.88;5046205;28;20737;-84
2021/03/09 05:57:39;;;;;;;34.22;18.48;;;;;;;2.82;76.32;100682.34;5047232;28;20067;-87
2021/03/09 06:00:07;;;;;;;33.90;18.77;;;;;;;2.85;76.14;100674.44;5030340;28;20057;-84
2021/03/09 06:02:34;;;;;;;31.65;18.98;;;;;;;2.88;75.97;100681.38;5051843;28;20109;-87
2021/03/09 06:05:04;;;;;;;31.25;18.17;;;;;;;2.88;75.47;100673.53;5051816;28;20168;-88
2021/03/09 06:07:31;;;;;;;36.53;19.35;;;;;;;2.87;75.50;100666.56;5038540;28;20053;-86
2021/03/09 06:09:57;;;;;;;31.88;18.88;;;;;;;2.87;75.21;100674.44;5035218;28;20053;-82
2021/03/09 06:12:25;;;;;;;30.70;18.08;;;;;;;2.88;75.42;100673.53;5023695;28;20084;-85
2021/03/09 06:14:55;;;;;;;35.78;18.63;;;;;;;2.93;75.74;100677.84;5029731;28;20052;-84
2021/03/09 06:17:39;;;;;;;35.63;19.45;;;;;;;2.93;75.32;100683.09;5045553;28;20049;-84
2021/03/09 06:20:26;;;;;;;31.13;18.10;;;;;;;2.91;75.11;100677.00;5037324;28;20088;-85
2021/03/09 06:22:55;;;;;;;33.35;18.75;;;;;;;2.92;75.12;100677.88;5018503;28;20096;-85
2021/03/09 06:25:29;;;;;;;32.42;17.90;;;;;;;2.95;74.90;100685.69;5035453;28;20057;-87
2021/03/09 06:28:06;;;;;;;34.08;18.83;;;;;;;2.95;75.55;100670.84;5017289;28;20171;-85
2021/03/09 06:30:38;;;;;;;31.55;18.55;;;;;;;3.05;75.03;100676.84;5031446;28;20067;-86
2021/03/09 06:33:05;;;;;;;37.83;18.73;;;;;;;3.09;74.99;100681.16;5036911;28;20050;-84
2021/03/09 06:35:33;;;;;;;30.52;17.58;;;;;;;3.11;74.59;100674.16;5030301;28;20061;-85
2021/03/09 06:38:28;;;;;;;30.83;18.17;;;;;;;3.13;75.27;100672.41;5031504;28;20056;-87
2021/03/09 06:41:15;;;;;;;33.28;18.08;;;;;;;3.21;74.27;100672.28;5035774;28;20111;-86
2021/03/09 06:43:58;;;;;;;31.42;17.65;;;;;;;3.26;73.93;100665.25;5033002;28;20058;-87
2021/03/09 06:46:25;;;;;;;30.48;17.75;;;;;;;3.32;73.33;100662.53;5020107;28;20052;-85
2021/03/09 06:49:01;;;;;;;32.05;17.63;;;;;;;3.37;72.78;100663.34;5037668;28;20053;-83
2021/03/09 06:51:33;;;;;;;31.55;17.67;;;;;;;3.40;72.71;100668.56;5018812;28;20133;-86
2021/03/09 06:54:09;;;;;;;31.38;18.15;;;;;;;3.46;72.30;100663.25;5041273;28;20117;-86
2021/03/09 06:56:44;;;;;;;35.28;17.75;;;;;;;3.53;72.47;100668.34;5039509;28;20109;-86
2021/03/09 06:59:26;;;;;;;39.38;18.58;;;;;;;3.62;72.39;100672.59;5021440;28;20061;-85
2021/03/09 07:02:12;;;;;;;33.45;18.30;;;;;;;3.75;71.80;100682.03;5031470;28;20113;-86
2021/03/09 07:04:49;;;;;;;33.75;18.48;;;;;;;3.85;71.75;100680.13;5028125;28;20054;-86
2021/03/09 07:07:38;;;;;;;29.00;17.65;;;;;;;3.94;70.70;100685.19;5028661;28;20061;-85
2021/03/09 07:10:07;;;;;;;37.03;18.73;;;;;;;3.98;70.29;100684.28;5043072;28;20116;-88
2021/03/09 07:12:36;;;;;;;39.47;18.97;;;;;;;3.96;70.98;100685.19;5045184;28;20060;-86
2021/03/09 07:15:07;;;;;;;36.67;18.58;;;;;;;3.96;70.73;100682.56;5017385;28;20500;-87
2021/03/09 07:17:36;;;;;;;35.95;18.17;;;;;;;4.00;70.29;100695.59;5052448;28;20080;-81
2021/03/09 07:20:10;;;;;;;35.25;17.90;;;;;;;4.04;70.42;100696.44;5053139;28;20042;-84
2021/03/09 07:22:51;;;;;;;33.30;18.70;;;;;;;4.09;70.69;100697.22;5037751;28;20041;-85
2021/03/09 07:25:18;;;;;;;34.83;18.88;;;;;;;4.19;69.80;100701.44;5050349;28;20037;-85
2021/03/09 07:27:51;;;;;;;31.98;18.13;;;;;;;4.30;70.24;100706.50;5047055;28;21604;-84
2021/03/09 07:30:20;;;;;;;31.00;18.27;;;;;;;4.42;70.34;100707.13;5040630;28;20124;-85
2021/03/09 07:32:49;;;;;;;33.15;17.48;;;;;;;4.48;70.50;100709.66;5038222;28;20071;-86
2021/03/09 07:35:17;;;;;;;31.13;18.35;;;;;;;4.64;70.08;100705.03;5028065;28;20582;-87
2021/03/09 07:37:45;;;;;;;33.67;18.17;;;;;;;4.78;69.29;100705.63;5030194;28;20056;-85
2021/03/09 07:40:20;;;;;;;31.30;18.52;;;;;;;4.89;68.53;100697.56;5046508;28;20057;-84
2021/03/09 07:42:47;;;;;;;31.27;17.25;;;;;;;5.19;68.91;100707.50;5030721;28;20063;-85
2021/03/09 07:45:19;;;;;;;26.48;17.60;;;;;;;5.46;66.47;100700.78;5028595;28;20058;-85
2021/03/09 07:47:56;;;;;;;33.45;18.60;;;;;;;5.74;66.35;100703.69;5042619;28;20045;-86
2021/03/09 07:50:24;;;;;;;30.75;17.20;;;;;;;6.04;64.97;100702.13;5017601;28;20403;-85
2021/03/09 07:53:05;;;;;;;31.80;18.48;;;;;;;6.29;64.49;100700.66;5035732;28;20103;-87
2021/03/09 07:55:31;;;;;;;30.17;17.52;;;;;;;6.60;62.38;100698.13;5046772;28;20057;-87
2021/03/09 07:58:21;;;;;;;33.78;17.48;;;;;;;6.82;61.23;100695.78;5049591;28;20026;-86
2021/03/09 08:00:56;;;;;;;27.00;17.40;;;;;;;7.04;60.31;100696.94;5054077;28;20089;-85
2021/03/09 08:03:34;;;;;;;29.85;18.02;;;;;;;7.14;61.04;100694.91;5049662;28;20047;-84
2021/03/09 08:06:18;;;;;;;29.50;18.00;;;;;;;7.47;59.68;100700.09;5038898;28;20056;-83
2021/03/09 08:08:51;;;;;;;30.65;18.70;;;;;;;7.42;59.15;100686.19;5042649;28;20044;-85
2021/03/09 08:11:19;;;;;;;27.98;17.52;;;;;;;7.40;59.38;100699.41;5051938;28;20069;-81
2021/03/09 08:14:12;;;;;;;30.02;17.88;;;;;;;7.55;59.31;100687.59;5045039;28;20137;-85
2021/03/09 08:16:40;;;;;;;27.42;17.00;;;;;;;7.73;57.57;100687.00;5039272;28;20044;-86
2021/03/09 08:19:10;;;;;;;28.65;18.08;;;;;;;7.63;57.63;100696.09;5045737;28;20053;-87
2021/03/09 08:21:51;;;;;;;28.42;17.90;;;;;;;7.44;56.99;100693.16;5050570;28;20129;-85
2021/03/09 08:24:20;;;;;;;29.40;17.90;;;;;;;7.12;58.74;100694.06;5035900;28;20108;-85
2021/03/09 08:26:48;;;;;;;29.52;18.42;;;;;;;6.76;59.47;100703.84;5045803;28;20049;-83
2021/03/09 08:29:30;;;;;;;28.67;18.77;;;;;;;6.62;60.13;100704.19;5038905;28;20087;-86
2021/03/09 08:32:26;;;;;;;30.25;18.10;;;;;;;6.56;59.30;100693.84;5028926;28;20061;-85
2021/03/09 08:35:16;;;;;;;29.85;18.05;;;;;;;6.49;60.29;100684.38;5037945;28;20064;-84
2021/03/09 08:37:45;;;;;;;28.35;18.73;;;;;;;6.67;60.57;100691.78;5016280;28;20050;-86
2021/03/09 08:40:14;;;;;;;28.63;18.15;;;;;;;6.88;60.63;100690.34;5027193;28;20068;-87
2021/03/09 08:43:02;;;;;;;32.08;17.98;;;;;;;7.07;59.24;100695.13;5039316;28;20405;-84
2021/03/09 08:45:33;;;;;;;30.98;18.13;;;;;;;7.21;58.40;100693.84;5049006;28;20057;-86
2021/03/09 08:48:00;;;;;;;27.95;18.25;;;;;;;7.33;58.39;100687.34;5034274;28;20057;-85
2021/03/09 08:50:44;;;;;;;30.98;18.40;;;;;;;7.52;57.14;100693.81;5033240;28;20058;-85
2021/03/09 08:53:33;;;;;;;28.92;17.60;;;;;;;7.63;57.38;100696.09;5020573;28;20232;-86
2021/03/09 08:56:05;;;;;;;30.40;17.60;;;;;;;7.67;57.16;100682.78;5038580;28;20108;-84
2021/03/09 08:58:41;;;;;;;26.35;17.20;;;;;;;7.70;56.83;100676.56;5040362;28;20045;-86
2021/03/09 09:01:08;;;;;;;31.48;17.33;;;;;;;7.78;56.13;100677.19;5039566;28;20435;-85
2021/03/09 09:03:37;;;;;;;28.60;16.52;;;;;;;7.77;55.53;100680.72;5021086;28;20136;-83
2021/03/09 09:06:05;;;;;;;25.52;15.75;;;;;;;7.72;55.56;100680.00;5035530;28;20122;-85
2021/03/09 09:08:34;;;;;;;29.38;16.75;;;;;;;7.69;55.07;100683.63;5037593;28;20066;-86
2021/03/09 09:11:03;;;;;;;30.20;16.65;;;;;;;7.36;54.98;100660.91;5039265;28;20046;-87
2021/03/09 09:13:37;;;;;;;25.95;16.05;;;;;;;7.23;55.19;100681.47;5041578;28;20140;-86
2021/03/09 09:16:21;;;;;;;24.70;15.82;;;;;;;7.19;55.37;100679.84;5001030;28;20151;-85
2021/03/09 09:18:48;;;;;;;25.95;15.40;;;;;;;7.02;55.49;100674.19;5032746;28;20059;-85
2021/03/09 09:21:17;;;;;;;26.33;15.57;;;;;;;6.89;55.69;100668.41;5039623;28;20155;-84
2021/03/09 09:23:54;;;;;;;22.83;14.68;;;;;;;6.96;55.80;100669.94;5028196;28;20060;-85
2021/03/09 09:26:22;;;;;;;31.30;19.55;;;;;;;7.19;55.65;100671.94;5032370;28;20061;-88
2021/03/09 09:28:51;;;;;;;24.42;15.88;;;;;;;7.31;55.04;100663.66;5046588;28;20041;-85
2021/03/09 09:31:19;;;;;;;25.20;15.80;;;;;;;7.34;54.96;100665.34;5047958;28;20054;-85
2021/03/09 09:33:48;;;;;;;24.17;15.75;;;;;;;7.44;54.33;100664.16;5047089;28;20053;-85
2021/03/09 09:36:14;;;;;;;25.55;14.98;;;;;;;7.62;55.31;100671.53;5049972;28;20033;-84
2021/03/09 09:38:40;;;;;;;25.08;15.50;;;;;;;7.87;54.26;100662.88;5041897;28;20052;-83
2021/03/09 09:41:07;;;;;;;27.38;16.38;;;;;;;7.97;53.63;100672.19;5039511;28;20071;-85
2021/03/09 09:43:35;;;;;;;26.52;15.48;;;;;;;7.99;53.16;100676.53;5041484;28;20145;-86
2021/03/09 09:46:14;;;;;;;24.77;14.50;;;;;;;8.05;53.55;100665.75;5047696;28;20049;-86
2021/03/09 09:48:42;;;;;;;26.30;15.97;;;;;;;8.27;54.17;100655.38;5046095;28;20052;-86
2021/03/09 09:51:17;;;;;;;25.30;15.77;;;;;;;8.44;52.14;100662.75;5042863;28;20067;-84
2021/03/09 09:53:50;;;;;;;26.95;15.43;;;;;;;8.42;51.61;100661.94;5020642;28;20060;-85
2021/03/09 09:56:17;;;;;;;28.65;16.17;;;;;;;8.44;51.47;100658.34;5003739;28;21453;-84
2021/03/09 09:58:51;;;;;;;24.52;14.77;;;;;;;8.31;51.83;100664.06;5037033;28;20471;-85
2021/03/09 10:01:32;;;;;;;24.40;15.68;;;;;;;8.36;51.97;100659.50;5020745;28;20062;-87
2021/03/09 10:04:00;;;;;;;23.77;14.77;;;;;;;8.29;52.23;100652.69;5024225;28;21027;-85
2021/03/09 10:06:51;;;;;;;26.10;14.70;;;;;;;8.62;51.81;100653.34;5047022;28;20113;-87
2021/03/09 10:09:23;;;;;;;24.50;14.20;;;;;;;8.79;51.10;100651.84;5024862;28;20034;-83
2021/03/09 10:15:11;;;;;;;22.15;14.60;;;;;;;9.02;50.55;100650.13;5053593;28;20056;-82
2021/03/09 10:17:39;;;;;;;23.25;14.25;;;;;;;9.00;50.18;100654.63;5045521;28;20119;-80
2021/03/09 10:20:27;;;;;;;25.98;13.82;;;;;;;8.98;50.87;100648.53;5028161;28;20050;-81
2021/03/09 10:23:02;;;;;;;20.45;14.07;;;;;;;8.97;49.60;100633.63;5040989;28;20036;-83
2021/03/09 10:25:29;;;;;;;25.38;13.82;;;;;;;8.89;51.05;100643.59;5042446;28;20064;-83
2021/03/09 10:28:04;;;;;;;20.60;12.90;;;;;;;9.01;50.05;100645.78;5042631;28;20072;-84
2021/03/09 10:30:49;;;;;;;18.00;11.85;;;;;;;9.00;49.37;100639.63;5043910;28;20115;-81
2021/03/09 10:33:16;;;;;;;22.73;14.05;;;;;;;9.01;49.39;100635.22;5047648;28;20439;-81
2021/03/09 10:36:23;;;;;;;21.30;12.98;;;;;;;9.12;49.59;100639.19;5031054;28;20108;-82
2021/03/09 10:39:09;;;;;;;18.88;11.50;;;;;;;9.28;48.77;100634.22;5022246;28;20053;-81
2021/03/09 10:41:36;;;;;;;19.38;11.07;;;;;;;9.39;48.53;100623.22;5036434;28;20408;-80
2021/03/09 10:44:02;;;;;;;19.60;11.90;;;;;;;9.33;47.76;100626.06;5037441;28;20068;-83
2021/03/09 10:46:34;;;;;;;22.63;12.70;;;;;;;9.23;48.14;100622.94;5034187;28;20050;-85
2021/03/09 10:49:00;;;;;;;18.40;11.80;;;;;;;9.24;47.95;100622.03;5035366;28;20099;-81
2021/03/09 10:51:28;;;;;;;18.33;11.10;;;;;;;9.14;47.77;100628.53;5039556;28;20064;-83
2021/03/09 10:53:55;;;;;;;19.05;10.90;;;;;;;8.79;48.08;100614.88;5016318;28;20061;-84
2021/03/09 10:56:22;;;;;;;18.88;11.63;;;;;;;8.68;49.37;100626.72;5034225;28;20085;-81
2021/03/09 10:58:49;;;;;;;12.15;8.48;;;;;;;9.04;48.17;100613.97;5021806;28;20055;-81
2021/03/09 11:01:16;;;;;;;14.15;7.43;;;;;;;9.39;46.76;100613.50;5020769;28;20045;-80
2021/03/09 11:03:42;;;;;;;10.38;6.22;;;;;;;9.49;45.63;100620.16;5040961;28;20121;-82
2021/03/09 11:06:09;;;;;;;12.65;6.57;;;;;;;9.60;46.32;100618.88;5039406;28;20064;-80
2021/03/09 11:08:35;;;;;;;11.43;7.28;;;;;;;9.67;46.12;100615.06;5027233;28;20495;-78
2021/03/09 11:11:02;;;;;;;11.10;7.57;;;;;;;9.73;46.14;100614.81;5041066;28;20465;-79
2021/03/09 11:13:28;;;;;;;12.27;7.05;;;;;;;9.71;45.90;100614.88;5046437;28;20073;-80
2021/03/09 11:15:55;;;;;;;12.18;7.22;;;;;;;9.59;45.56;100618.03;5047069;28;20121;-80
2021/03/09 11:18:23;;;;;;;16.08;8.45;;;;;;;9.46;45.59;100616.75;5050081;28;20080;-82
2021/03/09 11:20:52;;;;;;;13.80;7.32;;;;;;;9.42;46.39;100613.38;5045893;28;20053;-84
2021/03/09 11:23:19;;;;;;;9.95;5.85;;;;;;;9.28;45.08;100613.06;5021206;28;20056;-82
2021/03/09 11:25:48;;;;;;;12.90;7.55;;;;;;;9.37;46.48;100612.69;5032929;28;20800;-83
2021/03/09 11:28:15;;;;;;;12.52;7.97;;;;;;;9.57;46.09;100611.06;5032474;28;20394;-82
2021/03/09 11:30:45;;;;;;;12.82;7.70;;;;;;;9.64;45.59;100605.47;5038951;28;20076;-80
2021/03/09 11:33:11;;;;;;;16.23;9.55;;;;;;;9.68;45.74;100617.66;5034401;28;20141;-82
2021/03/09 11:35:38;;;;;;;16.95;9.82;;;;;;;9.62;45.84;100606.44;5007435;28;20049;-79
2021/03/09 11:38:04;;;;;;;18.92;10.70;;;;;;;9.56;46.88;100601.41;5043820;28;20057;-80
2021/03/09 11:40:30;;;;;;;21.60;12.25;;;;;;;9.59;46.89;100606.59;5048926;28;20515;-80
2021/03/09 11:42:57;;;;;;;19.80;11.75;;;;;;;9.64;47.45;100612.53;5047076;28;20060;-81
2021/03/09 11:45:24;;;;;;;24.02;13.15;;;;;;;9.60;47.43;100603.84;5042399;28;20116;-81